Terminal Aerodrome Forecast
Issued by NWS Sioux Falls, SD

Home | Current Version | Previous Version | Graphics & Text | Print | Product List | Glossary Off
Versions: 1 2 3 4 5 6 7 8 9 10 11 12 13 14 15 16 17 18 19 20 21 22 23 24 25 26 27 28 29 30 31 32

000
FTUS43 KFSD 190520
TAFSUX
TAF
KSUX 190520Z 1906/2006 15012KT P6SM SCT015
     FM190900 15011KT P6SM OVC006
     FM191500 17014G20KT P6SM BKN015
     FM192000 19017G25KT P6SM SCT025
     FM200000 19012KT P6SM BKN060=

USA.gov is the U.S. government's official web portal to all federal, state and local government web resources and services.